Terminal Aerodrome Forecast
Issued by NWS

Current Version | Previous Version | Text Only | Print | Product List | Glossary On
Versions: 1 2 3 4 5 6 7 8 9 10 11 12 13 14 15 16 17 18
000
FTUS41 KILN 212341
TAFLUK
TAF
KLUK 212341Z 2200/2224 15004KT P6SM BKN250
     FM220800 VRB03KT 3SM BR SCT120 BKN250
     FM221300 17008KT P6SM BKN150=

USA.gov is the U.S. government's official web portal to all federal, state and local government web resources and services.